Time;durP1;ratioP1;P1;durP2;ratioP2;P2;SDS_P1;SDS_P2;PMS_P1;PMS_P2;Temp;Humidity;BMP_temperature;BMP_pressure;BME280_temperature;BME280_humidity;BME280_pressure;Samples;Min_cycle;Max_cycle;Signal;HPM_P1;HPM_P2
2021/11/28 00:02:22;;;;;;;;;;;;;;;8.65;100.00;93449.50;10404435;28;19971;-76
2021/11/28 00:17:23;;;;;;;;;;;;;;;8.52;100.00;93437.66;10424027;28;20119;-76
2021/11/28 00:22:24;;;;;;;;;;;;;;;8.57;100.00;93434.91;10426802;28;19970;-81
2021/11/28 00:27:24;;;;;;;;;;;;;;;8.45;100.00;93421.97;10444227;28;20050;-76
2021/11/28 00:32:24;;;;;;;;;;;;;;;8.54;100.00;93428.25;10428030;28;19913;-84
2021/11/28 00:37:25;;;;;;;;;;;;;;;8.45;100.00;93431.88;10427693;28;20428;-74
2021/11/28 00:42:25;;;;;;;;;;;;;;;8.30;100.00;93424.84;10429011;28;19912;-81
2021/11/28 00:47:25;;;;;;;;;;;;;;;7.95;100.00;93433.09;10428106;28;19913;-79
2021/11/28 00:52:27;;;;;;;;;;;;;;;7.87;100.00;93433.75;10420738;28;19927;-78
2021/11/28 00:57:27;;;;;;;;;;;;;;;7.94;100.00;93428.03;10402046;28;19971;-80
2021/11/28 01:02:28;;;;;;;;;;;;;;;7.74;100.00;93423.75;10385197;28;19913;-79
2021/11/28 01:07:30;;;;;;;;;;;;;;;7.59;100.00;93424.75;10385882;28;19929;-80
2021/11/28 01:12:30;;;;;;;;;;;;;;;7.72;100.00;93399.16;10384891;28;19961;-80
2021/11/28 01:17:32;;;;;;;;;;;;;;;7.81;100.00;93400.91;10384683;28;19913;-78
2021/11/28 01:22:32;;;;;;;;;;;;;;;7.67;100.00;93395.50;10402910;28;20350;-78
2021/11/28 01:27:33;;;;;;;;;;;;;;;7.67;100.00;93398.19;10384845;28;19918;-78
2021/11/28 01:32:35;;;;;;;;;;;;;;;7.74;100.00;93394.34;10385135;28;19920;-79
2021/11/28 01:37:36;;;;;;;;;;;;;;;7.64;100.00;93403.28;10405608;28;19956;-77
2021/11/28 01:42:38;;;;;;;;;;;;;;;7.68;100.00;93394.41;10391995;28;19987;-81
2021/11/28 01:47:38;;;;;;;;;;;;;;;7.74;100.00;93413.06;10408424;28;20062;-78
2021/11/28 01:52:38;;;;;;;;;;;;;;;7.76;100.00;93424.25;10393070;28;19921;-76
2021/11/28 01:57:39;;;;;;;;;;;;;;;7.76;100.00;93419.72;10411218;28;19913;-81
2021/11/28 02:02:41;;;;;;;;;;;;;;;7.47;100.00;93430.50;10410252;28;19923;-78
2021/11/28 02:07:42;;;;;;;;;;;;;;;7.48;100.00;93442.78;10391290;28;20366;-76
2021/11/28 02:12:44;;;;;;;;;;;;;;;7.08;100.00;93436.81;10409366;28;20012;-77
2021/11/28 02:17:49;;;;;;;;;;;;;;;7.40;100.00;93406.78;10420106;28;19917;-79
2021/11/28 02:22:49;;;;;;;;;;;;;;;7.23;100.00;93419.81;10391912;28;20379;-79
2021/11/28 02:27:49;;;;;;;;;;;;;;;7.35;100.00;93398.81;10390889;28;19924;-80
2021/11/28 02:32:50;;;;;;;;;;;;;;;7.26;100.00;93385.31;10391142;28;20330;-77
2021/11/28 02:37:50;;;;;;;;;;;;;;;7.21;100.00;93388.03;10406859;28;19913;-76
2021/11/28 02:42:52;;;;;;;;;;;;;;;7.36;100.00;93349.66;10391896;28;20385;-78
2021/11/28 02:47:53;;;;;;;;;;;;;;;7.41;100.00;93354.94;10389874;28;19913;-84
2021/11/28 02:52:55;;;;;;;;;;;;;;;7.48;100.00;93344.69;10394315;28;20398;-76
2021/11/28 02:57:56;;;;;;;;;;;;;;;7.46;100.00;93354.84;10393449;28;19963;-77
2021/11/28 03:02:58;;;;;;;;;;;;;;;7.44;100.00;93366.94;10409633;28;19921;-83
2021/11/28 03:07:58;;;;;;;;;;;;;;;7.48;100.00;93357.22;10392974;28;20017;-76
2021/11/28 03:12:58;;;;;;;;;;;;;;;7.04;100.00;93377.81;10389446;28;19924;-81
2021/11/28 03:17:59;;;;;;;;;;;;;;;7.10;100.00;93349.97;10406630;28;19921;-78
2021/11/28 03:23:00;;;;;;;;;;;;;;;7.05;100.00;93334.00;10388662;28;20000;-76
2021/11/28 03:28:00;;;;;;;;;;;;;;;7.05;100.00;93319.81;10404983;28;19917;-77
2021/11/28 03:33:00;;;;;;;;;;;;;;;7.06;100.00;93306.22;10406581;28;19913;-81
2021/11/28 03:38:01;;;;;;;;;;;;;;;7.03;100.00;93322.00;10389081;28;20405;-75
2021/11/28 03:43:01;;;;;;;;;;;;;;;6.98;100.00;93326.31;10391027;28;19924;-85
2021/11/28 03:48:01;;;;;;;;;;;;;;;7.03;100.00;93330.81;10406835;28;19913;-78
2021/11/28 03:53:03;;;;;;;;;;;;;;;6.87;100.00;93377.47;10404992;28;19939;-76
2021/11/28 03:58:04;;;;;;;;;;;;;;;6.66;100.00;93383.00;10404517;28;19956;-76
2021/11/28 04:03:07;;;;;;;;;;;;;;;6.62;100.00;93420.13;10391472;28;20509;-77
2021/11/28 04:08:07;;;;;;;;;;;;;;;6.59;100.00;93447.41;10402634;28;19922;-75
2021/11/28 04:13:08;;;;;;;;;;;;;;;6.83;100.00;93417.28;10404737;28;20418;-77
2021/11/28 04:18:08;;;;;;;;;;;;;;;6.60;100.00;93472.22;10403183;28;19921;-81
2021/11/28 04:23:09;;;;;;;;;;;;;;;6.84;100.00;93501.69;10404489;28;20004;-75
2021/11/28 04:28:09;;;;;;;;;;;;;;;6.98;100.00;93491.94;10404215;28;19920;-84
2021/11/28 04:33:10;;;;;;;;;;;;;;;7.28;100.00;93463.31;10404695;28;19924;-77
2021/11/28 04:38:11;;;;;;;;;;;;;;;7.34;100.00;93474.75;10404426;28;20040;-73
2021/11/28 04:43:11;;;;;;;;;;;;;;;7.43;100.00;93486.41;10386767;28;20016;-72
2021/11/28 04:48:11;;;;;;;;;;;;;;;7.44;100.00;93457.81;10402991;28;20008;-76
2021/11/28 04:53:12;;;;;;;;;;;;;;;7.25;100.00;93489.81;10385526;28;20408;-77
2021/11/28 04:58:12;;;;;;;;;;;;;;;7.30;100.00;93490.56;10385143;28;19917;-76
2021/11/28 05:03:12;;;;;;;;;;;;;;;7.10;100.00;93475.53;10389421;28;20333;-77
2021/11/28 05:08:13;;;;;;;;;;;;;;;7.20;100.00;93469.28;10386888;28;20311;-76
2021/11/28 05:13:13;;;;;;;;;;;;;;;7.01;100.00;93480.66;10401768;28;19924;-75
2021/11/28 05:18:13;;;;;;;;;;;;;;;6.93;100.00;93475.94;10385984;28;19928;-80
2021/11/28 05:23:13;;;;;;;;;;;;;;;7.11;100.00;93489.69;10385754;28;19924;-81
2021/11/28 05:28:14;;;;;;;;;;;;;;;6.93;100.00;93513.31;10385227;28;20304;-77
2021/11/28 05:33:15;;;;;;;;;;;;;;;6.76;100.00;93526.31;10400656;28;19913;-77
2021/11/28 05:38:16;;;;;;;;;;;;;;;6.83;100.00;93508.09;10384320;28;19979;-76
2021/11/28 05:43:16;;;;;;;;;;;;;;;6.68;100.00;93506.31;10385398;28;20018;-81
2021/11/28 05:48:17;;;;;;;;;;;;;;;6.78;100.00;93442.19;10418414;28;19913;-77
2021/11/28 05:53:17;;;;;;;;;;;;;;;6.36;100.00;93464.91;10425223;28;19916;-76
2021/11/28 05:58:19;;;;;;;;;;;;;;;6.65;100.00;93448.94;10444458;28;19923;-81
2021/11/28 06:03:19;;;;;;;;;;;;;;;6.89;100.00;93458.88;10425364;28;19917;-75
2021/11/28 06:08:20;;;;;;;;;;;;;;;6.75;100.00;93482.75;10425881;28;19921;-74
2021/11/28 06:13:20;;;;;;;;;;;;;;;6.92;100.00;93487.72;10401811;28;19917;-75
2021/11/28 06:18:20;;;;;;;;;;;;;;;7.09;100.00;93495.31;10390909;28;19917;-78
2021/11/28 06:23:21;;;;;;;;;;;;;;;7.26;100.00;93491.41;10429364;28;19921;-75
2021/11/28 06:28:21;;;;;;;;;;;;;;;7.42;100.00;93495.50;10439353;28;19920;-80
2021/11/28 06:33:21;;;;;;;;;;;;;;;7.58;100.00;93503.38;10407007;28;19917;-75
2021/11/28 06:38:22;;;;;;;;;;;;;;;7.89;100.00;93517.19;10407596;28;20016;-75
2021/11/28 06:43:22;;;;;;;;;;;;;;;8.10;100.00;93547.16;10409910;28;19917;-84
2021/11/28 06:48:22;;;;;;;;;;;;;;;8.19;100.00;93540.09;10432276;28;19917;-82
2021/11/28 06:53:23;;;;;;;;;;;;;;;8.18;100.00;93518.97;10432290;28;19936;-81
2021/11/28 06:58:23;;;;;;;;;;;;;;;8.41;100.00;93535.25;10432602;28;20375;-77
2021/11/28 07:03:23;;;;;;;;;;;;;;;8.20;100.00;93535.53;10449940;28;20011;-77
2021/11/28 07:08:23;;;;;;;;;;;;;;;8.46;100.00;93535.22;10430306;28;19920;-78
2021/11/28 07:13:25;;;;;;;;;;;;;;;8.64;100.00;93525.59;10431298;28;20371;-80
2021/11/28 07:18:26;;;;;;;;;;;;;;;8.96;100.00;93530.19;10432133;28;20025;-74
2021/11/28 07:23:27;;;;;;;;;;;;;;;9.18;100.00;93548.34;10420192;28;20456;-80
2021/11/28 07:28:28;;;;;;;;;;;;;;;9.28;100.00;93525.09;10398684;28;19913;-78
2021/11/28 07:33:28;;;;;;;;;;;;;;;9.62;100.00;93524.78;10389669;28;19913;-78
2021/11/28 07:38:28;;;;;;;;;;;;;;;9.86;100.00;93496.97;10405607;28;19913;-76
2021/11/28 07:43:28;;;;;;;;;;;;;;;9.79;100.00;93491.19;10441312;28;19920;-76
2021/11/28 07:48:29;;;;;;;;;;;;;;;10.16;100.00;93517.03;10426512;28;19920;-79
2021/11/28 07:53:29;;;;;;;;;;;;;;;10.31;100.00;93507.03;10429518;28;20023;-74
2021/11/28 07:58:30;;;;;;;;;;;;;;;10.52;100.00;93457.19;10425651;28;20082;-73
2021/11/28 08:03:30;;;;;;;;;;;;;;;10.39;100.00;93504.47;10425148;28;19924;-73
2021/11/28 08:08:34;;;;;;;;;;;;;;;10.78;100.00;93508.44;10424165;28;20370;-74
2021/11/28 08:13:35;;;;;;;;;;;;;;;11.30;100.00;93517.94;10442122;28;19973;-74
2021/11/28 08:18:35;;;;;;;;;;;;;;;10.94;100.00;93508.88;10441354;28;19970;-75
2021/11/28 08:23:36;;;;;;;;;;;;;;;11.10;100.00;93447.44;10418127;28;19931;-74
2021/11/28 08:28:36;;;;;;;;;;;;;;;11.33;100.00;93516.56;10420977;28;19921;-74
2021/11/28 08:33:37;;;;;;;;;;;;;;;11.66;100.00;93500.88;10424304;28;19917;-76
2021/11/28 08:38:42;;;;;;;;;;;;;;;11.68;100.00;93495.19;10426504;28;19917;-79
2021/11/28 08:43:43;;;;;;;;;;;;;;;11.52;100.00;93501.00;10448459;28;19917;-77
2021/11/28 08:48:43;;;;;;;;;;;;;;;11.99;100.00;93519.44;10425075;28;20437;-76
2021/11/28 08:53:43;;;;;;;;;;;;;;;12.34;100.00;93460.25;10443747;28;19932;-77
2021/11/28 08:58:44;;;;;;;;;;;;;;;12.35;100.00;93504.13;10412616;28;19917;-75
2021/11/28 09:03:44;;;;;;;;;;;;;;;11.65;100.00;93526.22;10404714;28;19974;-75
2021/11/28 09:08:44;;;;;;;;;;;;;;;12.45;100.00;93515.41;10440069;28;19936;-76
2021/11/28 09:13:45;;;;;;;;;;;;;;;12.64;100.00;93530.50;10422755;28;20011;-75
2021/11/28 09:18:51;;;;;;;;;;;;;;;12.95;100.00;93545.75;10421019;28;19979;-78
2021/11/28 09:29:10;;;;;;;;;;;;;;;13.25;100.00;93508.91;10445716;28;19912;-77
2021/11/28 09:34:11;;;;;;;;;;;;;;;13.35;100.00;93478.13;10429563;28;19912;-78
2021/11/28 09:39:11;;;;;;;;;;;;;;;13.59;100.00;93483.00;10425978;28;19917;-74
2021/11/28 09:44:14;;;;;;;;;;;;;;;13.61;100.00;93434.09;10440125;28;20024;-77
2021/11/28 09:49:15;;;;;;;;;;;;;;;13.71;100.00;93476.91;10422734;28;19930;-74
2021/11/28 09:54:15;;;;;;;;;;;;;;;13.68;100.00;93483.75;10443695;28;20399;-73
2021/11/28 09:59:16;;;;;;;;;;;;;;;13.79;100.00;93456.41;10429282;28;19917;-83
2021/11/28 10:04:20;;;;;;;;;;;;;;;13.93;100.00;93458.88;10450536;28;19916;-80
2021/11/28 10:09:20;;;;;;;;;;;;;;;13.99;100.00;93444.84;10413936;28;19924;-81
2021/11/28 10:14:21;;;;;;;;;;;;;;;14.02;100.00;93414.50;10431801;28;20349;-77
2021/11/28 10:19:21;;;;;;;;;;;;;;;14.00;100.00;93413.22;10402123;28;19921;-85
2021/11/28 10:24:21;;;;;;;;;;;;;;;14.02;98.63;93406.38;10390660;28;20276;-77
2021/11/28 10:29:22;;;;;;;;;;;;;;;13.71;100.00;93393.22;10401986;28;20279;-79
2021/11/28 10:34:24;;;;;;;;;;;;;;;13.63;100.00;93396.75;10427883;28;20003;-76
2021/11/28 10:39:24;;;;;;;;;;;;;;;13.25;100.00;93378.63;10428225;28;19960;-77
2021/11/28 10:44:26;;;;;;;;;;;;;;;13.28;100.00;93369.88;10430434;28;20011;-81
2021/11/28 10:49:26;;;;;;;;;;;;;;;13.13;100.00;93361.22;10427025;28;19964;-74
2021/11/28 10:54:37;;;;;;;;;;;;;;;13.24;100.00;93361.66;10404149;28;20458;-75
2021/11/28 10:59:38;;;;;;;;;;;;;;;13.23;100.00;93384.34;10406500;28;20014;-78
2021/11/28 11:04:38;;;;;;;;;;;;;;;13.29;100.00;93404.63;10408309;28;19932;-81
2021/11/28 11:09:41;;;;;;;;;;;;;;;13.44;100.00;93414.13;10412421;28;19931;-77
2021/11/28 11:14:43;;;;;;;;;;;;;;;13.73;99.21;93425.28;10432486;28;19913;-83
2021/11/28 11:19:47;;;;;;;;;;;;;;;13.98;96.24;93428.97;10433107;28;19999;-75
2021/11/28 11:24:53;;;;;;;;;;;;;;;13.93;92.87;93446.16;10431197;28;19917;-80
2021/11/28 11:29:55;;;;;;;;;;;;;;;14.06;91.22;93417.31;10422404;28;19923;-78
2021/11/28 11:34:57;;;;;;;;;;;;;;;14.13;86.43;93400.59;10423089;28;19960;-76
2021/11/28 11:39:57;;;;;;;;;;;;;;;14.06;84.85;93409.22;10429692;28;20390;-74
2021/11/28 11:44:58;;;;;;;;;;;;;;;13.75;83.64;93407.63;10444189;28;19921;-79
2021/11/28 11:49:58;;;;;;;;;;;;;;;13.77;73.48;93362.22;10430199;28;20042;-74
2021/11/28 11:55:00;;;;;;;;;;;;;;;13.68;75.30;93367.66;10444732;28;19955;-77
2021/11/28 12:00:08;;;;;;;;;;;;;;;13.82;75.64;93374.72;10411122;28;20358;-78
2021/11/28 12:05:28;;;;;;;;;;;;;;;13.83;78.91;93379.81;10518488;22;19933;-74
2021/11/28 12:10:33;;;;;;;;;;;;;;;13.97;75.47;93382.25;10403578;28;19975;-83
2021/11/28 12:15:35;;;;;;;;;;;;;;;14.11;73.48;93392.81;10380454;28;20306;-76
2021/11/28 12:21:02;;;;;;;;;;;;;;;13.97;77.23;93400.38;10380857;28;20319;-76
2021/11/28 12:26:03;;;;;;;;;;;;;;;13.92;58.60;93428.34;10368636;28;20028;-76
2021/11/28 12:31:06;;;;;;;;;;;;;;;14.14;53.09;93419.19;10386513;28;19923;-78
2021/11/28 12:36:07;;;;;;;;;;;;;;;14.44;52.96;93429.16;10385866;28;20311;-80
2021/11/28 12:41:09;;;;;;;;;;;;;;;14.65;52.67;93402.94;10374297;28;19913;-80
2021/11/28 12:46:09;;;;;;;;;;;;;;;14.46;52.54;93387.16;10374659;28;20335;-77
2021/11/28 12:51:09;;;;;;;;;;;;;;;14.60;51.80;93373.38;10384474;28;19913;-79
2021/11/28 12:56:10;;;;;;;;;;;;;;;14.76;51.54;93351.91;10350443;28;19918;-76
2021/11/28 13:01:10;;;;;;;;;;;;;;;15.08;50.64;93341.41;10343410;28;20365;-75
2021/11/28 13:06:25;;;;;;;;;;;;;;;15.20;49.53;93336.00;10358973;28;19932;-76
2021/11/28 13:11:27;;;;;;;;;;;;;;;15.17;49.48;93314.25;10364244;28;20415;-79
2021/11/28 13:16:31;;;;;;;;;;;;;;;15.32;49.48;93313.59;10384586;28;19914;-80
2021/11/28 13:21:31;;;;;;;;;;;;;;;15.37;48.53;93304.44;10401507;28;19913;-81
2021/11/28 13:26:34;;;;;;;;;;;;;;;15.44;48.20;93310.09;10403613;28;19917;-77
2021/11/28 13:31:37;;;;;;;;;;;;;;;15.44;49.58;93306.59;10370139;28;19921;-79
2021/11/28 13:36:48;;;;;;;;;;;;;;;15.36;48.77;93297.44;10368050;28;19914;-76
2021/11/28 13:41:52;;;;;;;;;;;;;;;15.18;46.78;93326.66;10366526;28;20426;-75
2021/11/28 13:46:55;;;;;;;;;;;;;;;15.07;46.70;93307.38;10367388;28;20060;-82
2021/11/28 13:51:55;;;;;;;;;;;;;;;14.95;47.04;93308.13;10368087;28;20407;-78
2021/11/28 13:57:06;;;;;;;;;;;;;;;14.89;48.48;93300.56;10368864;28;19917;-77
2021/11/28 14:02:09;;;;;;;;;;;;;;;14.82;47.79;93309.25;10368203;28;19914;-77
2021/11/28 14:07:11;;;;;;;;;;;;;;;14.66;48.04;93312.56;10365627;28;19941;-77
2021/11/28 14:12:13;;;;;;;;;;;;;;;14.40;48.83;93312.81;10395585;28;20745;-75
2021/11/28 14:17:13;;;;;;;;;;;;;;;14.35;48.62;93318.41;10389277;28;20306;-75
2021/11/28 14:22:26;;;;;;;;;;;;;;;14.19;49.64;93318.22;10392507;28;19925;-77
2021/11/28 14:27:26;;;;;;;;;;;;;;;14.05;52.12;93306.88;10392173;28;19917;-77
2021/11/28 14:32:27;;;;;;;;;;;;;;;13.95;52.62;93291.88;10387838;28;19970;-78
2021/11/28 14:37:28;;;;;;;;;;;;;;;13.97;53.44;93311.25;10407195;28;19921;-75
2021/11/28 14:42:35;;;;;;;;;;;;;;;13.75;56.33;93283.44;10391587;28;20291;-75
2021/11/28 14:47:36;;;;;;;;;;;;;;;13.57;58.78;93290.06;10404974;28;20298;-75
2021/11/28 14:52:37;;;;;;;;;;;;;;;13.47;59.13;93262.34;10405348;28;19913;-75
2021/11/28 14:57:43;;;;;;;;;;;;;;;13.34;60.57;93245.25;10406321;28;19921;-77
2021/11/28 15:02:43;;;;;;;;;;;;;;;13.34;60.31;93255.28;10403807;28;19936;-78
2021/11/28 15:07:43;;;;;;;;;;;;;;;13.07;66.67;93229.53;10405651;28;19940;-75
2021/11/28 15:12:44;;;;;;;;;;;;;;;12.82;72.03;93254.41;10406178;28;19924;-74
2021/11/28 15:17:45;;;;;;;;;;;;;;;12.69;77.03;93254.63;10387191;28;20379;-77
2021/11/28 15:22:47;;;;;;;;;;;;;;;12.57;84.06;93231.84;10405338;28;19963;-75
2021/11/28 15:27:47;;;;;;;;;;;;;;;12.62;84.09;93239.72;10382435;28;19928;-72
2021/11/28 15:32:48;;;;;;;;;;;;;;;12.70;84.72;93245.41;10371251;28;19921;-77
2021/11/28 15:37:51;;;;;;;;;;;;;;;12.48;88.90;93242.63;10363244;28;19913;-80
2021/11/28 15:42:51;;;;;;;;;;;;;;;12.59;90.39;93234.19;10364388;28;19924;-74
2021/11/28 15:47:55;;;;;;;;;;;;;;;12.42;90.02;93240.41;10392593;28;20381;-78
2021/11/28 15:52:55;;;;;;;;;;;;;;;12.57;91.37;93220.25;10405402;28;20394;-76
2021/11/28 15:57:55;;;;;;;;;;;;;;;12.51;88.50;93205.38;10411252;28;19921;-75
2021/11/28 16:02:56;;;;;;;;;;;;;;;12.40;88.90;93191.47;10385356;28;20093;-80
2021/11/28 16:07:57;;;;;;;;;;;;;;;12.42;85.42;93203.50;10381169;28;19922;-83
2021/11/28 16:12:58;;;;;;;;;;;;;;;12.35;87.49;93208.59;10394563;28;20708;-73
2021/11/28 16:17:58;;;;;;;;;;;;;;;12.41;88.64;93195.75;10385967;28;19913;-76
2021/11/28 16:23:01;;;;;;;;;;;;;;;12.30;87.86;93187.22;10401254;28;20497;-78
2021/11/28 16:28:02;;;;;;;;;;;;;;;12.42;88.11;93163.09;10384311;28;19925;-75
2021/11/28 16:33:02;;;;;;;;;;;;;;;12.46;88.91;93144.34;10389568;28;19913;-77
2021/11/28 16:38:03;;;;;;;;;;;;;;;12.43;93.62;93167.38;10400600;28;19921;-79
2021/11/28 16:43:04;;;;;;;;;;;;;;;12.35;97.83;93154.72;10391185;28;19927;-75
2021/11/28 16:48:05;;;;;;;;;;;;;;;12.25;100.00;93192.78;10376756;28;19960;-78
2021/11/28 16:53:08;;;;;;;;;;;;;;;12.18;100.00;93171.75;10380801;28;20008;-75
2021/11/28 16:58:08;;;;;;;;;;;;;;;12.13;100.00;93151.13;10382410;28;19913;-77
2021/11/28 17:03:09;;;;;;;;;;;;;;;12.03;100.00;93170.34;10397824;28;19921;-79
2021/11/28 17:08:10;;;;;;;;;;;;;;;12.03;100.00;93154.19;10385322;28;19917;-77
2021/11/28 17:13:21;;;;;;;;;;;;;;;11.90;100.00;93163.19;10401633;28;19917;-76
2021/11/28 17:18:21;;;;;;;;;;;;;;;11.50;100.00;93163.41;10397335;28;19921;-77
2021/11/28 17:23:22;;;;;;;;;;;;;;;11.11;100.00;93166.72;10403506;28;20055;-75
2021/11/28 17:28:23;;;;;;;;;;;;;;;10.85;100.00;93157.84;10385320;28;20373;-79
2021/11/28 17:33:24;;;;;;;;;;;;;;;10.83;100.00;93163.53;10384981;28;20296;-76
2021/11/28 17:38:24;;;;;;;;;;;;;;;10.64;100.00;93146.88;10345976;28;19917;-77
2021/11/28 17:43:25;;;;;;;;;;;;;;;11.00;100.00;93149.31;10390613;28;19921;-79
2021/11/28 17:48:32;;;;;;;;;;;;;;;11.10;100.00;93126.72;10384364;28;19913;-82
2021/11/28 17:53:33;;;;;;;;;;;;;;;10.97;100.00;93052.38;10403491;28;19922;-75
2021/11/28 17:58:33;;;;;;;;;;;;;;;11.17;100.00;93093.97;10402541;28;19913;-77
2021/11/28 18:03:37;;;;;;;;;;;;;;;11.27;100.00;93112.47;10392180;28;19952;-76
2021/11/28 18:08:37;;;;;;;;;;;;;;;11.27;100.00;93121.34;10378468;28;19918;-76
2021/11/28 18:13:38;;;;;;;;;;;;;;;11.30;100.00;93146.78;10401621;28;19917;-77
2021/11/28 18:18:38;;;;;;;;;;;;;;;11.24;100.00;93162.31;10389990;28;19913;-80
2021/11/28 18:23:39;;;;;;;;;;;;;;;11.33;100.00;93134.63;10372866;28;19924;-78
2021/11/28 18:28:39;;;;;;;;;;;;;;;11.22;100.00;93132.25;10352361;28;20012;-78
2021/11/28 18:33:41;;;;;;;;;;;;;;;11.07;100.00;93103.16;10370425;28;19921;-72
2021/11/28 18:38:44;;;;;;;;;;;;;;;10.87;100.00;93113.41;10383180;28;19921;-78
2021/11/28 18:43:44;;;;;;;;;;;;;;;10.76;100.00;93107.56;10374046;28;19921;-83
2021/11/28 18:48:45;;;;;;;;;;;;;;;10.74;100.00;93106.28;10407980;28;19925;-79
2021/11/28 18:53:47;;;;;;;;;;;;;;;10.80;100.00;93113.09;10391241;28;20003;-75
2021/11/28 18:58:50;;;;;;;;;;;;;;;10.71;100.00;93074.66;10395506;28;20354;-76
2021/11/28 19:03:51;;;;;;;;;;;;;;;10.86;100.00;93055.41;10422420;28;19932;-75
2021/11/28 19:08:52;;;;;;;;;;;;;;;10.83;100.00;93034.53;10396050;28;19917;-76
2021/11/28 19:13:52;;;;;;;;;;;;;;;10.67;100.00;93031.50;10388138;28;20500;-79
2021/11/28 19:18:52;;;;;;;;;;;;;;;10.74;100.00;93031.84;10368102;28;20415;-75
2021/11/28 19:23:52;;;;;;;;;;;;;;;10.62;100.00;93053.19;10352750;28;19968;-80
2021/11/28 19:28:54;;;;;;;;;;;;;;;10.40;100.00;93049.50;10392599;28;20391;-80
2021/11/28 19:33:55;;;;;;;;;;;;;;;10.48;100.00;93039.88;10374653;28;19975;-78
2021/11/28 19:39:01;;;;;;;;;;;;;;;10.64;100.00;93023.31;10377103;28;19928;-81
2021/11/28 19:44:03;;;;;;;;;;;;;;;10.64;100.00;93031.38;10382281;28;20014;-74
2021/11/28 19:49:05;;;;;;;;;;;;;;;10.39;100.00;93044.44;10381119;28;19945;-77
2021/11/28 19:54:06;;;;;;;;;;;;;;;10.27;100.00;93023.56;10394053;28;19922;-78
2021/11/28 19:59:08;;;;;;;;;;;;;;;10.23;100.00;93011.88;10382151;28;19913;-76
2021/11/28 20:04:11;;;;;;;;;;;;;;;10.38;100.00;92989.97;10373401;28;19987;-77
2021/11/28 20:09:11;;;;;;;;;;;;;;;10.20;100.00;92999.84;10395651;28;20357;-75
2021/11/28 20:14:11;;;;;;;;;;;;;;;10.08;100.00;93007.72;10393792;28;19919;-74
2021/11/28 20:19:12;;;;;;;;;;;;;;;10.24;100.00;92994.63;10384663;28;19971;-74
2021/11/28 20:24:12;;;;;;;;;;;;;;;10.25;100.00;92970.16;10407962;28;19921;-74
2021/11/28 20:29:13;;;;;;;;;;;;;;;10.30;100.00;92985.34;10407283;28;20410;-78
2021/11/28 20:34:15;;;;;;;;;;;;;;;10.21;100.00;92971.09;10362858;28;19914;-74
2021/11/28 20:39:16;;;;;;;;;;;;;;;9.93;100.00;92974.03;10385547;28;19967;-77
2021/11/28 20:44:18;;;;;;;;;;;;;;;9.69;100.00;92971.78;10383904;28;20435;-76
2021/11/28 20:49:19;;;;;;;;;;;;;;;9.35;100.00;92973.22;10371498;28;19920;-77
2021/11/28 20:54:19;;;;;;;;;;;;;;;9.24;100.00;92984.22;10372954;28;19917;-76
2021/11/28 20:59:20;;;;;;;;;;;;;;;8.98;100.00;92959.16;10372620;28;19925;-75
2021/11/28 21:04:21;;;;;;;;;;;;;;;8.67;100.00;92971.41;10405184;28;19921;-77
2021/11/28 21:09:21;;;;;;;;;;;;;;;8.72;100.00;92965.94;10401498;28;20019;-76
2021/11/28 21:14:21;;;;;;;;;;;;;;;8.85;100.00;92937.50;10403399;28;20426;-79
2021/11/28 21:19:21;;;;;;;;;;;;;;;8.97;100.00;92944.19;10383862;28;19914;-81
2021/11/28 21:24:22;;;;;;;;;;;;;;;8.88;100.00;92944.91;10382473;28;20020;-81
2021/11/28 21:29:22;;;;;;;;;;;;;;;8.93;100.00;92948.56;10382096;28;19913;-75
2021/11/28 21:34:22;;;;;;;;;;;;;;;8.51;100.00;92940.72;10381820;28;19970;-75
2021/11/28 21:39:23;;;;;;;;;;;;;;;8.38;100.00;92931.63;10401610;28;20311;-77
2021/11/28 21:44:23;;;;;;;;;;;;;;;8.10;100.00;92938.97;10384365;28;20370;-76
2021/11/28 21:49:24;;;;;;;;;;;;;;;7.98;100.00;92921.56;10384267;28;19913;-78
2021/11/28 21:54:24;;;;;;;;;;;;;;;7.80;100.00;92925.97;10388809;28;19917;-77
2021/11/28 21:59:24;;;;;;;;;;;;;;;7.96;100.00;92929.09;10392462;28;20019;-75
2021/11/28 22:04:25;;;;;;;;;;;;;;;8.01;100.00;92907.59;10406129;28;20170;-82
2021/11/28 22:09:26;;;;;;;;;;;;;;;7.90;100.00;92897.41;10394184;28;20414;-79
2021/11/28 22:14:30;;;;;;;;;;;;;;;7.96;100.00;92913.03;10391901;28;19974;-81
2021/11/28 22:19:30;;;;;;;;;;;;;;;7.92;100.00;92906.72;10390223;28;19920;-75
2021/11/28 22:24:31;;;;;;;;;;;;;;;7.98;100.00;92880.63;10390951;28;19921;-75
2021/11/28 22:29:34;;;;;;;;;;;;;;;7.84;100.00;92876.13;10390240;28;20024;-80
2021/11/28 22:34:35;;;;;;;;;;;;;;;7.96;100.00;92856.88;10408919;28;19917;-76
2021/11/28 22:39:36;;;;;;;;;;;;;;;7.84;100.00;92865.44;10406545;28;19917;-77
2021/11/28 22:44:36;;;;;;;;;;;;;;;8.07;100.00;92864.69;10406596;28;19944;-74
2021/11/28 22:49:38;;;;;;;;;;;;;;;8.24;100.00;92854.09;10386515;28;20413;-77
2021/11/28 22:54:38;;;;;;;;;;;;;;;8.37;100.00;92850.56;10366860;28;19914;-76
2021/11/28 22:59:38;;;;;;;;;;;;;;;8.23;100.00;92849.81;10390916;28;20259;-74
2021/11/28 23:04:39;;;;;;;;;;;;;;;8.29;100.00;92859.31;10405384;28;20314;-76
2021/11/28 23:09:39;;;;;;;;;;;;;;;8.16;100.00;92844.91;10405367;28;19917;-75
2021/11/28 23:14:39;;;;;;;;;;;;;;;8.09;100.00;92839.19;10405582;28;19917;-77
2021/11/28 23:19:40;;;;;;;;;;;;;;;8.14;100.00;92839.06;10406070;28;19921;-75
2021/11/28 23:24:40;;;;;;;;;;;;;;;8.27;100.00;92824.03;10404942;28;19917;-76
2021/11/28 23:29:40;;;;;;;;;;;;;;;8.18;100.00;92815.19;10404863;28;19913;-75
2021/11/28 23:34:41;;;;;;;;;;;;;;;8.34;100.00;92802.19;10404163;28;20007;-75
2021/11/28 23:39:41;;;;;;;;;;;;;;;8.15;100.00;92815.75;10404764;28;19913;-77
2021/11/28 23:44:41;;;;;;;;;;;;;;;7.86;100.00;92860.56;10403971;28;19917;-76
2021/11/28 23:49:42;;;;;;;;;;;;;;;8.03;100.00;92829.69;10388224;28;20236;-74
2021/11/28 23:54:42;;;;;;;;;;;;;;;7.97;100.00;92796.94;10404982;28;19936;-74
2021/11/28 23:59:42;;;;;;;;;;;;;;;8.16;100.00;92767.31;10404214;28;19920;-77
